Time;durP1;ratioP1;P1;durP2;ratioP2;P2;SDS_P1;SDS_P2;PMS_P1;PMS_P2;Temp;Humidity;BMP_temperature;BMP_pressure;BME280_temperature;BME280_humidity;BME280_pressure;Samples;Min_cycle;Max_cycle;Signal;HPM_P1;HPM_P2
2021/06/21 00:00:32;;;;;;;4.65;4.22;;;26.90;47.10;;;;;;4950118;29;20215;-45
2021/06/21 00:02:58;;;;;;;4.18;3.78;;;26.90;47.10;;;;;;4953719;29;20236;-45
2021/06/21 00:05:24;;;;;;;4.95;3.78;;;26.90;47.00;;;;;;4954545;29;20204;-49
2021/06/21 00:07:51;;;;;;;4.38;3.97;;;26.90;47.10;;;;;;4952893;29;20206;-45
2021/06/21 00:10:17;;;;;;;5.35;3.95;;;26.90;47.10;;;;;;4939797;28;20320;-45
2021/06/21 00:12:44;;;;;;;3.58;3.22;;;26.90;47.10;;;;;;4953283;29;20244;-49
2021/06/21 00:15:11;;;;;;;4.57;3.55;;;26.90;47.00;;;;;;4954603;29;20209;-46
2021/06/21 00:17:37;;;;;;;4.50;4.07;;;26.90;47.00;;;;;;4951594;28;20365;-49
2021/06/21 00:20:04;;;;;;;4.10;3.75;;;26.90;47.00;;;;;;4939388;29;20206;-39
2021/06/21 00:22:30;;;;;;;4.18;3.78;;;26.90;47.00;;;;;;4952335;29;20221;-44
2021/06/21 00:24:57;;;;;;;4.80;3.83;;;26.90;47.10;;;;;;4952616;29;20201;-40
2021/06/21 00:27:24;;;;;;;4.53;4.00;;;26.90;47.00;;;;;;4951874;29;20215;-51
2021/06/21 00:29:50;;;;;;;3.65;3.35;;;26.90;47.00;;;;;;4944919;28;20213;-40
2021/06/21 00:32:17;;;;;;;4.80;4.05;;;26.90;46.90;;;;;;4943203;29;20225;-45
2021/06/21 00:34:43;;;;;;;3.80;3.40;;;26.90;47.00;;;;;;4953476;29;20205;-52
2021/06/21 00:37:10;;;;;;;4.00;3.60;;;26.90;47.00;;;;;;4952562;29;20197;-47
2021/06/21 00:39:36;;;;;;;3.67;3.33;;;26.90;47.00;;;;;;4944677;29;20215;-42
2021/06/21 00:42:03;;;;;;;5.32;3.83;;;26.90;47.00;;;;;;4949704;29;20247;-51
2021/06/21 00:44:29;;;;;;;4.10;3.72;;;26.90;47.00;;;;;;4951896;28;20204;-45
2021/06/21 00:46:55;;;;;;;4.05;3.65;;;26.90;47.60;;;;;;4951967;29;20622;-41
2021/06/21 00:49:22;;;;;;;4.22;3.83;;;26.90;46.90;;;;;;4952654;29;20640;-48
2021/06/21 00:51:48;;;;;;;3.85;3.50;;;26.90;46.90;;;;;;4935273;29;20243;-42
2021/06/21 00:54:15;;;;;;;3.72;3.42;;;26.90;46.90;;;;;;4953446;29;20209;-45
2021/06/21 00:56:41;;;;;;;3.88;3.47;;;26.90;46.90;;;;;;4953722;29;20282;-45
2021/06/21 00:59:08;;;;;;;4.03;3.60;;;26.90;47.00;;;;;;4949875;29;20208;-45
2021/06/21 01:01:34;;;;;;;3.80;3.50;;;26.90;46.90;;;;;;4953610;29;20235;-50
2021/06/21 01:04:02;;;;;;;3.80;3.47;;;26.90;46.80;;;;;;4941094;28;20209;-57
2021/06/21 01:06:28;;;;;;;3.95;3.55;;;26.90;46.90;;;;;;4953156;29;20237;-45
2021/06/21 01:08:54;;;;;;;4.15;3.78;;;26.90;46.90;;;;;;4952569;29;20215;-53
2021/06/21 01:11:23;;;;;;;3.50;3.20;;;26.90;46.90;;;;;;4950049;29;20719;-45
2021/06/21 01:13:49;;;;;;;4.57;3.95;;;26.90;46.90;;;;;;4952664;29;20205;-38
2021/06/21 01:16:16;;;;;;;4.47;3.50;;;26.90;46.90;;;;;;4952673;29;20204;-48
2021/06/21 01:18:42;;;;;;;3.83;3.53;;;26.90;46.90;;;;;;4953573;29;20201;-46
2021/06/21 01:21:09;;;;;;;3.55;3.25;;;26.90;46.90;;;;;;4950949;29;20217;-48
2021/06/21 01:23:35;;;;;;;3.78;3.15;;;26.90;46.90;;;;;;4952768;29;20205;-52
2021/06/21 01:26:01;;;;;;;3.42;3.10;;;26.90;46.90;;;;;;4952852;29;20624;-51
2021/06/21 01:28:29;;;;;;;3.95;3.38;;;26.90;46.80;;;;;;4953697;29;20665;-54
2021/06/21 01:30:56;;;;;;;3.85;3.47;;;26.90;46.80;;;;;;4950325;29;20229;-43
2021/06/21 01:33:22;;;;;;;3.83;3.42;;;26.90;46.80;;;;;;4950051;29;20205;-40
2021/06/21 01:35:49;;;;;;;3.65;3.13;;;26.80;46.80;;;;;;4953555;29;20197;-42
2021/06/21 01:38:15;;;;;;;3.78;3.47;;;26.90;46.80;;;;;;4952731;29;20205;-45
2021/06/21 01:40:41;;;;;;;3.50;3.20;;;26.90;46.80;;;;;;4946290;28;20210;-50
2021/06/21 01:43:08;;;;;;;4.05;3.53;;;26.90;46.80;;;;;;4941143;28;20201;-37
2021/06/21 01:45:34;;;;;;;3.63;3.33;;;26.90;46.80;;;;;;4935786;29;20212;-49
2021/06/21 01:48:01;;;;;;;3.83;3.53;;;26.90;46.80;;;;;;4945146;29;20205;-42
2021/06/21 01:50:27;;;;;;;3.85;3.35;;;26.90;46.80;;;;;;4947635;29;20241;-47
2021/06/21 01:52:54;;;;;;;3.70;3.38;;;26.90;46.80;;;;;;4950820;29;20201;-44
2021/06/21 01:55:20;;;;;;;3.38;3.08;;;26.90;46.80;;;;;;4950069;28;20206;-52
2021/06/21 01:57:47;;;;;;;3.58;3.30;;;26.90;46.80;;;;;;4953095;28;20207;-49
2021/06/21 02:00:14;;;;;;;3.30;3.00;;;26.90;46.80;;;;;;4952221;29;20534;-40
2021/06/21 02:02:40;;;;;;;3.50;3.20;;;26.90;46.80;;;;;;4937134;29;20596;-36
2021/06/21 02:05:06;;;;;;;3.72;3.42;;;26.90;46.80;;;;;;4943138;29;20309;-35
2021/06/21 02:07:33;;;;;;;3.97;3.25;;;26.90;46.80;;;;;;4946205;29;20207;-47
2021/06/21 02:09:59;;;;;;;3.50;3.20;;;26.80;46.80;;;;;;4952853;29;20207;-53
2021/06/21 02:12:26;;;;;;;3.65;3.35;;;26.90;46.80;;;;;;4944721;29;20224;-56
2021/06/21 02:14:52;;;;;;;3.50;3.20;;;26.90;46.80;;;;;;4952202;29;20376;-51
2021/06/21 02:17:19;;;;;;;4.30;3.45;;;26.90;46.80;;;;;;4951553;29;20293;-56
2021/06/21 02:19:45;;;;;;;3.03;2.72;;;26.90;46.80;;;;;;4952493;29;20203;-52
2021/06/21 02:22:12;;;;;;;4.57;3.50;;;26.90;46.80;;;;;;4950563;29;20225;-46
2021/06/21 02:24:38;;;;;;;3.20;2.92;;;26.90;46.80;;;;;;4950770;29;20332;-52
2021/06/21 02:27:05;;;;;;;3.38;3.17;;;26.80;46.60;;;;;;4951027;29;20203;-46
2021/06/21 02:29:31;;;;;;;3.20;3.00;;;26.80;46.70;;;;;;4949571;29;20280;-42
2021/06/21 02:31:57;;;;;;;3.30;3.03;;;26.80;46.70;;;;;;4948697;29;20237;-49
2021/06/21 02:34:24;;;;;;;3.45;3.15;;;26.80;46.70;;;;;;4946552;29;20232;-51
2021/06/21 02:36:50;;;;;;;3.58;3.28;;;26.90;46.70;;;;;;4950565;29;20201;-52
2021/06/21 02:39:17;;;;;;;3.25;2.95;;;26.80;46.70;;;;;;4951626;29;20203;-51
2021/06/21 02:41:43;;;;;;;4.60;3.08;;;26.90;46.70;;;;;;4937768;29;20410;-55
2021/06/21 02:44:10;;;;;;;3.42;3.13;;;26.90;46.60;;;;;;4948994;29;20201;-52
2021/06/21 02:46:36;;;;;;;3.15;2.85;;;26.80;46.60;;;;;;4952253;29;20208;-54
2021/06/21 02:49:02;;;;;;;3.70;3.33;;;26.90;46.80;;;;;;4943786;29;20206;-54
2021/06/21 02:51:29;;;;;;;5.35;2.90;;;26.90;46.80;;;;;;4950939;29;20241;-51
2021/06/21 02:53:55;;;;;;;3.58;3.25;;;26.80;46.90;;;;;;4944222;29;20205;-40
2021/06/21 02:56:22;;;;;;;3.05;2.75;;;26.80;47.00;;;;;;4951669;29;20201;-46
2021/06/21 02:58:48;;;;;;;3.47;2.83;;;26.90;47.00;;;;;;4938295;29;20212;-50
2021/06/21 03:01:15;;;;;;;3.75;3.45;;;26.80;46.90;;;;;;4946835;29;20252;-51
2021/06/21 03:03:41;;;;;;;3.60;2.97;;;26.90;47.00;;;;;;4950645;28;20281;-56
2021/06/21 03:06:07;;;;;;;3.33;3.03;;;26.80;46.90;;;;;;4950444;28;20292;-40
2021/06/21 03:08:34;;;;;;;3.03;2.83;;;26.90;47.00;;;;;;4955484;29;20211;-39
2021/06/21 03:11:00;;;;;;;3.10;2.80;;;26.80;47.00;;;;;;4955702;29;20232;-50
2021/06/21 03:13:27;;;;;;;3.35;3.08;;;26.80;47.00;;;;;;4950156;29;20301;-45
2021/06/21 03:15:53;;;;;;;3.30;3.00;;;26.80;47.00;;;;;;4948447;29;20292;-49
2021/06/21 03:18:20;;;;;;;3.60;3.30;;;26.80;47.00;;;;;;4954762;29;20662;-49
2021/06/21 03:20:46;;;;;;;3.55;3.25;;;26.80;47.00;;;;;;4955761;29;20661;-49
2021/06/21 03:23:13;;;;;;;3.30;3.00;;;26.80;46.90;;;;;;4953901;29;20665;-46
2021/06/21 03:25:39;;;;;;;2.88;2.67;;;26.90;46.90;;;;;;4943452;29;20216;-54
2021/06/21 03:28:06;;;;;;;3.25;2.95;;;26.80;46.90;;;;;;4947904;29;20205;-56
2021/06/21 03:30:32;;;;;;;3.78;3.25;;;26.80;47.00;;;;;;4953114;29;20232;-54
2021/06/21 03:32:59;;;;;;;3.40;3.10;;;26.90;47.00;;;;;;4947523;29;20216;-56
2021/06/21 03:35:26;;;;;;;3.13;2.83;;;26.90;47.00;;;;;;4950407;29;20371;-44
2021/06/21 03:37:52;;;;;;;3.10;2.90;;;26.80;46.90;;;;;;4955218;29;20205;-54
2021/06/21 03:40:19;;;;;;;3.72;3.42;;;26.90;46.80;;;;;;4954397;29;20223;-50
2021/06/21 03:42:45;;;;;;;3.95;3.00;;;26.90;47.30;;;;;;4954873;29;20304;-57
2021/06/21 03:45:11;;;;;;;4.32;2.97;;;26.90;47.30;;;;;;4948894;28;20247;-44
2021/06/21 03:47:38;;;;;;;3.22;2.88;;;26.90;47.40;;;;;;4953702;28;20669;-48
2021/06/21 03:50:04;;;;;;;2.78;2.58;;;26.90;47.40;;;;;;4946363;29;20215;-51
2021/06/21 03:52:31;;;;;;;3.28;2.83;;;26.90;47.50;;;;;;4953802;29;20225;-53
2021/06/21 03:55:07;;;;;;;3.35;3.00;;;26.80;47.40;;;;;;4953438;29;20213;-57
2021/06/21 03:57:34;;;;;;;3.67;2.88;;;26.80;47.40;;;;;;4951361;28;20212;-52
2021/06/21 04:00:00;;;;;;;3.00;2.80;;;26.80;47.40;;;;;;4938669;29;20283;-47
2021/06/21 04:02:26;;;;;;;2.80;2.60;;;26.80;47.40;;;;;;4954800;29;20215;-48
2021/06/21 04:04:53;;;;;;;3.25;2.63;;;26.90;47.50;;;;;;4940159;29;20221;-52
2021/06/21 04:07:19;;;;;;;4.03;2.95;;;26.90;47.40;;;;;;4951608;29;20213;-38
2021/06/21 04:09:46;;;;;;;3.33;3.03;;;26.90;47.40;;;;;;4952388;28;20209;-52
2021/06/21 04:12:12;;;;;;;3.58;2.70;;;26.80;47.20;;;;;;4951386;29;20772;-50
2021/06/21 04:14:39;;;;;;;3.53;3.00;;;26.90;47.30;;;;;;4954587;29;20548;-45
2021/06/21 04:17:05;;;;;;;3.03;2.72;;;26.80;47.20;;;;;;4953459;29;20202;-40
2021/06/21 04:19:31;;;;;;;2.70;2.50;;;26.80;47.20;;;;;;4952768;28;20197;-53
2021/06/21 04:21:58;;;;;;;2.97;2.42;;;26.90;47.30;;;;;;4944694;29;20423;-48
2021/06/21 04:24:24;;;;;;;3.15;2.85;;;26.90;47.40;;;;;;4953266;29;20591;-48
2021/06/21 04:26:51;;;;;;;3.30;3.00;;;26.90;47.40;;;;;;4944394;29;20586;-40
2021/06/21 04:29:17;;;;;;;2.92;2.72;;;26.90;47.40;;;;;;4954402;29;20652;-40
2021/06/21 04:31:44;;;;;;;3.03;2.70;;;26.90;47.40;;;;;;4953232;29;20727;-46
2021/06/21 04:34:10;;;;;;;3.00;2.60;;;26.90;47.40;;;;;;4953309;29;20661;-44
2021/06/21 04:36:36;;;;;;;3.63;2.63;;;26.90;47.40;;;;;;4951654;29;20669;-44
2021/06/21 04:39:03;;;;;;;2.97;2.78;;;26.90;47.40;;;;;;4953429;29;20677;-53
2021/06/21 04:41:30;;;;;;;3.55;2.80;;;26.90;47.40;;;;;;4950187;29;20252;-49
2021/06/21 04:43:56;;;;;;;3.20;2.90;;;26.90;47.40;;;;;;4953526;29;20669;-49
2021/06/21 04:46:23;;;;;;;2.88;2.63;;;26.90;47.50;;;;;;4951609;29;20672;-43
2021/06/21 04:48:50;;;;;;;3.92;3.40;;;26.90;47.50;;;;;;4940880;28;20202;-51
2021/06/21 04:51:16;;;;;;;3.60;3.10;;;26.90;47.50;;;;;;4945610;29;20233;-47
2021/06/21 04:53:43;;;;;;;3.97;3.05;;;26.90;47.50;;;;;;4953181;29;20686;-46
2021/06/21 04:56:09;;;;;;;3.00;2.67;;;26.90;47.50;;;;;;4952118;29;20312;-45
2021/06/21 04:58:36;;;;;;;3.45;2.75;;;26.90;47.50;;;;;;4951793;29;20224;-39
2021/06/21 05:01:02;;;;;;;3.38;3.08;;;26.90;47.50;;;;;;4950996;29;20288;-50
2021/06/21 05:03:29;;;;;;;2.95;2.75;;;26.90;47.60;;;;;;4954001;29;20296;-41
2021/06/21 05:05:56;;;;;;;2.90;2.70;;;26.80;47.50;;;;;;4951929;29;20296;-42
2021/06/21 05:08:22;;;;;;;4.75;2.90;;;26.90;47.60;;;;;;4953418;29;20205;-48
2021/06/21 05:10:49;;;;;;;2.80;2.60;;;26.90;47.60;;;;;;4952154;29;20412;-47
2021/06/21 05:13:15;;;;;;;2.88;2.50;;;26.90;47.60;;;;;;4950921;29;20212;-54
2021/06/21 05:15:42;;;;;;;2.88;2.55;;;26.90;47.60;;;;;;4952302;29;20211;-52
2021/06/21 05:18:08;;;;;;;3.58;3.28;;;26.90;47.50;;;;;;4946437;29;20209;-48
2021/06/21 05:20:35;;;;;;;2.90;2.70;;;26.90;47.60;;;;;;4943684;29;20229;-49
2021/06/21 05:23:01;;;;;;;3.25;2.70;;;26.90;47.60;;;;;;4953083;29;20197;-48
2021/06/21 05:25:28;;;;;;;3.63;2.60;;;26.90;47.60;;;;;;4945172;28;20205;-54
2021/06/21 05:27:55;;;;;;;2.70;2.47;;;26.90;47.60;;;;;;4950092;29;20272;-39
2021/06/21 05:30:21;;;;;;;2.80;2.60;;;26.90;47.50;;;;;;4936875;29;20229;-59
2021/06/21 05:32:48;;;;;;;3.03;2.75;;;26.90;47.70;;;;;;4952870;29;20229;-55
2021/06/21 05:35:15;;;;;;;3.90;2.42;;;26.90;47.80;;;;;;4952634;29;20209;-53
2021/06/21 05:37:41;;;;;;;2.80;2.60;;;26.90;47.70;;;;;;4953256;29;20278;-51
2021/06/21 05:40:08;;;;;;;2.72;2.53;;;26.90;47.70;;;;;;4944127;29;20217;-48
2021/06/21 05:42:34;;;;;;;2.83;2.63;;;26.90;47.70;;;;;;4944443;29;20701;-48
2021/06/21 05:45:01;;;;;;;3.92;3.15;;;26.90;47.70;;;;;;4951947;29;20209;-50
2021/06/21 05:47:27;;;;;;;3.20;2.60;;;26.90;47.60;;;;;;4947675;29;20576;-44
2021/06/21 05:49:53;;;;;;;3.35;2.67;;;26.90;47.60;;;;;;4945534;29;20558;-44
2021/06/21 05:52:20;;;;;;;2.90;2.60;;;26.90;47.60;;;;;;4952385;29;20598;-49
2021/06/21 05:54:47;;;;;;;2.88;2.50;;;26.90;47.60;;;;;;4949035;29;20581;-48
2021/06/21 05:57:13;;;;;;;2.58;2.38;;;26.90;47.60;;;;;;4952879;29;20296;-54
2021/06/21 05:59:40;;;;;;;3.13;2.78;;;26.90;47.60;;;;;;4947241;29;20206;-39
2021/06/21 06:02:06;;;;;;;3.20;2.90;;;26.90;47.60;;;;;;4952824;29;20256;-54
2021/06/21 06:04:33;;;;;;;3.08;2.70;;;26.90;47.60;;;;;;4949820;29;20293;-46
2021/06/21 06:06:59;;;;;;;2.78;2.58;;;26.90;47.50;;;;;;4952331;29;20208;-52
2021/06/21 06:09:25;;;;;;;2.75;2.55;;;26.90;47.50;;;;;;4952372;29;20206;-40
2021/06/21 06:11:52;;;;;;;2.55;2.35;;;26.90;47.50;;;;;;4951606;29;20241;-46
2021/06/21 06:14:18;;;;;;;2.33;2.10;;;26.90;47.50;;;;;;4951667;29;20260;-54
2021/06/21 06:16:45;;;;;;;3.10;2.50;;;26.90;47.50;;;;;;4951887;29;20239;-52
2021/06/21 06:19:11;;;;;;;2.60;2.40;;;26.90;47.40;;;;;;4952326;29;20229;-41
2021/06/21 06:21:38;;;;;;;2.83;2.40;;;26.90;47.50;;;;;;4942946;29;20340;-37
2021/06/21 06:24:04;;;;;;;2.63;2.42;;;26.90;47.50;;;;;;4952291;29;20207;-44
2021/06/21 06:26:31;;;;;;;2.63;2.42;;;26.90;47.50;;;;;;4950994;29;20208;-50
2021/06/21 06:28:57;;;;;;;3.40;2.45;;;26.90;47.40;;;;;;4952086;29;20443;-52
2021/06/21 06:31:24;;;;;;;3.83;2.95;;;26.90;47.40;;;;;;4948373;29;20225;-51
2021/06/21 06:33:50;;;;;;;2.47;2.28;;;26.90;47.40;;;;;;4952384;28;20285;-47
2021/06/21 06:36:17;;;;;;;2.78;2.58;;;26.90;47.40;;;;;;4951401;29;20205;-52
2021/06/21 06:38:43;;;;;;;2.75;2.40;;;26.90;47.40;;;;;;4947419;29;20206;-41
2021/06/21 06:41:10;;;;;;;2.55;2.22;;;26.90;47.30;;;;;;4942175;29;20341;-46
2021/06/21 06:43:36;;;;;;;2.63;2.42;;;26.90;47.30;;;;;;4954805;29;20205;-50
2021/06/21 06:46:03;;;;;;;3.10;2.63;;;26.90;47.30;;;;;;4955722;29;20300;-51
2021/06/21 06:48:30;;;;;;;2.92;2.33;;;26.90;47.30;;;;;;4955829;29;20203;-40
2021/06/21 06:50:57;;;;;;;2.50;2.30;;;26.90;47.30;;;;;;4952958;29;20237;-43
2021/06/21 06:53:33;;;;;;;2.85;2.65;;;26.90;47.30;;;;;;4947756;29;20231;-44
2021/06/21 06:58:43;;;;;;;2.60;2.40;;;26.90;47.30;;;;;;4956438;29;20332;-55
2021/06/21 07:01:10;;;;;;;2.85;2.65;;;26.90;47.10;;;;;;4952546;29;20232;-48
2021/06/21 07:03:36;;;;;;;2.40;2.20;;;26.90;47.20;;;;;;4956214;29;20205;-47
2021/06/21 07:06:03;;;;;;;2.92;2.72;;;26.90;47.10;;;;;;4955262;29;20211;-48
2021/06/21 07:08:29;;;;;;;2.47;2.25;;;26.90;47.10;;;;;;4954327;29;20223;-48
2021/06/21 07:10:56;;;;;;;2.90;2.08;;;26.90;47.00;;;;;;4954185;29;20229;-50
2021/06/21 07:13:22;;;;;;;5.25;2.40;;;27.00;47.00;;;;;;4947868;28;20316;-35
2021/06/21 07:15:49;;;;;;;5.13;2.67;;;27.00;47.60;;;;;;4951788;28;20209;-50
2021/06/21 07:18:16;;;;;;;8.10;1.80;;;;;;;;;;4954406;29;20545;-44
2021/06/21 07:20:43;;;;;;;6.55;2.25;;;25.90;37.10;;;;;;4955466;29;20235;-44
2021/06/21 07:23:09;;;;;;;7.13;2.42;;;25.40;39.20;;;;;;4952054;29;20744;-41
2021/06/21 07:25:35;;;;;;;6.53;2.03;;;25.20;38.70;;;;;;4953483;29;20666;-40
2021/06/21 07:28:02;;;;;;;4.63;1.90;;;24.60;38.10;;;;;;4953166;29;20679;-47
2021/06/21 07:30:28;;;;;;;5.38;1.83;;;24.40;38.60;;;;;;4951395;29;20233;-36
2021/06/21 07:32:55;;;;;;;7.53;2.10;;;24.10;39.00;;;;;;4948054;28;20232;-46
2021/06/21 07:35:21;;;;;;;7.07;2.10;;;24.20;38.50;;;;;;4953353;29;20201;-51
2021/06/21 07:37:48;;;;;;;4.88;2.17;;;24.20;38.90;;;;;;4954593;29;20205;-51
2021/06/21 07:40:14;;;;;;;7.35;1.85;;;24.30;38.40;;;;;;4954462;29;20332;-38
2021/06/21 07:42:40;;;;;;;4.80;1.65;;;24.10;38.20;;;;;;4952874;29;20212;-54
2021/06/21 07:45:07;;;;;;;5.55;2.03;;;24.00;38.10;;;;;;4955529;29;20301;-46
2021/06/21 07:47:34;;;;;;;5.57;2.38;;;24.00;38.90;;;;;;4951987;29;20307;-44
2021/06/21 07:50:00;;;;;;;6.00;2.38;;;24.00;39.40;;;;;;4952764;29;20245;-46
2021/06/21 07:52:26;;;;;;;7.35;2.28;;;24.00;39.40;;;;;;4953273;28;20557;-39
2021/06/21 07:54:58;;;;;;;5.30;2.00;;;24.00;38.90;;;;;;4948092;29;20631;-40
2021/06/21 07:57:25;;;;;;;5.88;1.95;;;24.10;39.20;;;;;;4944196;29;20288;-52
2021/06/21 07:59:51;;;;;;;9.65;2.40;;;23.90;39.20;;;;;;4952721;29;20259;-50
2021/06/21 08:02:18;;;;;;;5.50;1.75;;;24.10;38.90;;;;;;4952419;29;20215;-45
2021/06/21 08:04:47;;;;;;;7.18;2.00;;;24.20;38.30;;;;;;4939727;29;20213;-39
2021/06/21 08:07:13;;;;;;;5.97;2.28;;;24.20;38.80;;;;;;4944741;29;20208;-36
2021/06/21 08:09:40;;;;;;;4.65;2.58;;;24.30;37.50;;;;;;4954365;29;20225;-45
2021/06/21 08:12:06;;;;;;;4.22;1.70;;;24.40;37.10;;;;;;4946910;28;20305;-53
2021/06/21 08:14:32;;;;;;;5.18;2.00;;;24.30;37.60;;;;;;4940747;29;20202;-54
2021/06/21 08:16:59;;;;;;;6.15;2.20;;;24.50;38.10;;;;;;4952291;28;20211;-38
2021/06/21 08:19:25;;;;;;;4.97;1.42;;;24.70;38.70;;;;;;4952848;29;20225;-40
2021/06/21 08:21:52;;;;;;;5.13;1.55;;;25.10;39.00;;;;;;4940099;29;20220;-46
2021/06/21 08:24:18;;;;;;;3.95;1.70;;;25.50;39.30;;;;;;4945716;29;20206;-50
2021/06/21 08:26:45;;;;;;;5.15;1.67;;;25.70;39.40;;;;;;4949629;29;20212;-54
2021/06/21 08:29:11;;;;;;;2.78;1.20;;;25.80;39.50;;;;;;4952446;29;20212;-53
2021/06/21 08:31:38;;;;;;;4.13;1.40;;;25.90;39.60;;;;;;4953826;29;20201;-42
2021/06/21 08:34:04;;;;;;;2.03;1.40;;;26.00;40.10;;;;;;4953003;28;20205;-51
2021/06/21 08:36:30;;;;;;;2.05;1.40;;;26.10;40.60;;;;;;4954360;29;20205;-51
2021/06/21 08:38:57;;;;;;;2.75;1.23;;;26.10;40.70;;;;;;4952474;29;20205;-49
2021/06/21 08:41:23;;;;;;;4.25;2.17;;;26.20;40.90;;;;;;4953903;29;20227;-36
2021/06/21 08:43:50;;;;;;;2.47;1.35;;;26.20;41.00;;;;;;4952425;28;20209;-52
2021/06/21 08:46:16;;;;;;;4.90;1.23;;;26.30;41.60;;;;;;4954376;29;20215;-39
2021/06/21 08:48:43;;;;;;;4.55;1.38;;;26.30;41.70;;;;;;4953737;28;20210;-39
2021/06/21 08:51:09;;;;;;;9.27;1.40;;;26.30;42.00;;;;;;4954698;28;20224;-39
2021/06/21 08:53:35;;;;;;;2.72;1.20;;;26.30;42.10;;;;;;4948941;28;20236;-49
2021/06/21 08:56:02;;;;;;;2.35;1.20;;;26.30;42.10;;;;;;4945651;29;20205;-51
2021/06/21 08:58:28;;;;;;;6.05;1.10;;;26.40;42.30;;;;;;4946203;28;20207;-45
2021/06/21 09:00:55;;;;;;;1.15;1.00;;;26.40;42.30;;;;;;4953487;29;20229;-41
2021/06/21 09:03:21;;;;;;;3.88;1.13;;;26.40;42.30;;;;;;4954310;29;20205;-38
2021/06/21 09:05:48;;;;;;;2.70;1.30;;;26.40;42.40;;;;;;4952444;28;20201;-50
2021/06/21 09:08:14;;;;;;;3.65;1.13;;;26.40;42.30;;;;;;4953361;29;20244;-45
2021/06/21 09:10:41;;;;;;;4.00;1.20;;;26.40;42.60;;;;;;4954021;29;20784;-43
2021/06/21 09:13:07;;;;;;;4.43;1.50;;;26.50;43.10;;;;;;4936239;28;20340;-42
2021/06/21 09:15:33;;;;;;;4.28;1.23;;;26.50;43.20;;;;;;4945115;29;20743;-40
2021/06/21 09:18:01;;;;;;;3.92;1.25;;;;;;;;;;4938007;29;20574;-41
2021/06/21 09:20:28;;;;;;;4.05;1.40;;;26.60;43.00;;;;;;4952349;29;20316;-41
2021/06/21 09:22:56;;;;;;;3.00;1.13;;;26.60;43.70;;;;;;4952393;28;20629;-41
2021/06/21 09:25:22;;;;;;;3.67;1.15;;;26.60;43.40;;;;;;4950985;29;20208;-40
2021/06/21 09:27:49;;;;;;;4.93;1.88;;;26.60;44.40;;;;;;4950086;29;20209;-43
2021/06/21 09:30:15;;;;;;;4.43;2.15;;;26.60;44.40;;;;;;4942721;29;20221;-46
2021/06/21 09:32:42;;;;;;;6.53;1.63;;;26.60;44.50;;;;;;4950146;29;20233;-49
2021/06/21 09:35:08;;;;;;;5.82;1.20;;;26.70;44.50;;;;;;4953514;29;20212;-44
2021/06/21 09:37:35;;;;;;;4.95;1.40;;;26.70;44.70;;;;;;4951227;29;20230;-47
2021/06/21 09:40:01;;;;;;;2.63;1.20;;;26.70;44.60;;;;;;4951611;28;20304;-43
2021/06/21 09:42:27;;;;;;;4.68;2.05;;;26.70;44.90;;;;;;4949166;29;20220;-41
2021/06/21 09:44:54;;;;;;;4.40;1.23;;;26.70;44.90;;;;;;4951768;28;20209;-45
2021/06/21 09:47:20;;;;;;;3.65;1.20;;;26.70;44.90;;;;;;4949460;29;20201;-45
2021/06/21 09:49:47;;;;;;;2.97;1.67;;;26.70;44.90;;;;;;4952590;29;20229;-43
2021/06/21 09:52:13;;;;;;;2.70;1.13;;;26.70;44.90;;;;;;4952606;29;20720;-42
2021/06/21 09:54:40;;;;;;;1.92;1.10;;;26.70;45.60;;;;;;4949396;29;20670;-43
2021/06/21 09:57:06;;;;;;;3.75;1.27;;;26.70;44.90;;;;;;4945679;28;20638;-47
2021/06/21 09:59:34;;;;;;;5.82;1.40;;;26.70;44.90;;;;;;4953494;29;20733;-50
2021/06/21 10:02:01;;;;;;;2.88;1.38;;;26.70;44.90;;;;;;4953305;29;20307;-45
2021/06/21 10:04:27;;;;;;;2.90;1.35;;;26.70;44.90;;;;;;4952552;29;20729;-42
2021/06/21 10:06:53;;;;;;;1.70;1.25;;;26.70;44.90;;;;;;4954053;29;20576;-44
2021/06/21 10:09:20;;;;;;;2.22;1.38;;;26.70;44.90;;;;;;4936748;29;20591;-45
2021/06/21 10:11:46;;;;;;;3.88;1.00;;;26.70;44.90;;;;;;4934593;29;20293;-43
2021/06/21 10:14:13;;;;;;;4.43;1.63;;;26.70;44.90;;;;;;4934062;29;20241;-42
2021/06/21 10:16:39;;;;;;;3.45;1.20;;;26.70;44.70;;;;;;4932397;29;20304;-50
2021/06/21 10:19:06;;;;;;;2.67;1.50;;;26.70;44.70;;;;;;4944556;29;20221;-50
2021/06/21 10:21:32;;;;;;;4.05;1.40;;;26.70;44.70;;;;;;4953663;29;20201;-45
2021/06/21 10:23:59;;;;;;;2.17;1.35;;;26.70;44.70;;;;;;4952907;29;20215;-49
2021/06/21 10:26:25;;;;;;;3.55;1.10;;;26.70;44.70;;;;;;4951958;28;20204;-42
2021/06/21 10:28:51;;;;;;;2.05;1.65;;;26.70;44.70;;;;;;4943169;29;20235;-48
2021/06/21 10:31:18;;;;;;;1.50;1.20;;;26.70;45.30;;;;;;4953277;29;20295;-45
2021/06/21 10:33:44;;;;;;;1.65;1.00;;;26.70;44.70;;;;;;4952768;29;20229;-46
2021/06/21 10:36:11;;;;;;;8.48;2.10;;;26.70;44.70;;;;;;4951762;29;20205;-49
2021/06/21 10:38:37;;;;;;;2.72;1.20;;;26.70;44.70;;;;;;4936259;29;20225;-44
2021/06/21 10:41:05;;;;;;;2.17;1.17;;;26.70;44.70;;;;;;4953189;29;20211;-47
2021/06/21 10:43:31;;;;;;;3.42;1.50;;;26.70;44.70;;;;;;4953164;29;20205;-48
2021/06/21 10:45:57;;;;;;;3.15;1.35;;;26.70;44.70;;;;;;4953008;29;20206;-51
2021/06/21 10:48:24;;;;;;;2.78;1.20;;;26.70;44.70;;;;;;4952955;29;20201;-52
2021/06/21 10:50:50;;;;;;;2.75;1.10;;;26.70;44.70;;;;;;4940466;29;20197;-49
2021/06/21 10:53:17;;;;;;;2.35;1.40;;;26.70;44.70;;;;;;4950924;29;20258;-49
2021/06/21 10:55:44;;;;;;;1.33;1.02;;;26.70;44.70;;;;;;4950569;29;20201;-43
2021/06/21 10:58:10;;;;;;;3.45;1.10;;;26.70;44.70;;;;;;4953055;29;20205;-51
2021/06/21 11:00:37;;;;;;;3.63;1.10;;;26.70;44.70;;;;;;4950587;28;20233;-48
2021/06/21 11:03:03;;;;;;;4.78;1.20;;;26.70;44.70;;;;;;4948921;29;20209;-46
2021/06/21 11:05:30;;;;;;;3.15;1.30;;;26.70;44.80;;;;;;4953500;29;20205;-51
2021/06/21 11:07:56;;;;;;;2.03;1.30;;;26.70;44.80;;;;;;4953735;29;20201;-51
2021/06/21 11:10:22;;;;;;;2.70;1.17;;;26.70;44.90;;;;;;4945317;29;20268;-50
2021/06/21 11:12:49;;;;;;;2.58;1.15;;;26.70;44.80;;;;;;4944812;29;20229;-47
2021/06/21 11:15:17;;;;;;;1.92;1.20;;;26.70;44.90;;;;;;4952047;29;20224;-45
2021/06/21 11:17:43;;;;;;;1.85;1.40;;;26.70;44.90;;;;;;4952083;29;20264;-43
2021/06/21 11:20:10;;;;;;;3.38;1.45;;;26.70;44.90;;;;;;4952594;28;20259;-51
2021/06/21 11:22:36;;;;;;;2.35;1.10;;;26.70;44.90;;;;;;4952377;29;20268;-49
2021/06/21 11:25:02;;;;;;;2.70;1.20;;;26.70;44.90;;;;;;4952875;29;20265;-45
2021/06/21 11:27:29;;;;;;;2.17;1.20;;;26.70;44.90;;;;;;4949184;28;20300;-49
2021/06/21 11:29:56;;;;;;;1.48;1.05;;;26.70;44.90;;;;;;4937255;29;20221;-48
2021/06/21 11:32:22;;;;;;;1.35;0.90;;;26.70;44.90;;;;;;4936882;29;20300;-49
2021/06/21 11:34:49;;;;;;;5.40;1.30;;;26.70;44.90;;;;;;4946702;29;20228;-42
2021/06/21 11:37:15;;;;;;;2.03;1.20;;;26.70;44.90;;;;;;4956099;29;20240;-45
2021/06/21 11:39:41;;;;;;;1.85;1.40;;;26.70;44.90;;;;;;4943443;29;20610;-45
2021/06/21 11:42:08;;;;;;;1.95;1.17;;;26.70;44.90;;;;;;4937103;29;20209;-44
2021/06/21 11:44:34;;;;;;;1.92;1.17;;;26.80;45.00;;;;;;4937529;29;20210;-49
2021/06/21 11:47:01;;;;;;;1.33;1.20;;;26.70;45.00;;;;;;4936969;29;20210;-47
2021/06/21 11:49:27;;;;;;;2.40;1.23;;;26.70;45.00;;;;;;4937361;29;20218;-45
2021/06/21 11:51:54;;;;;;;2.45;1.08;;;26.70;44.90;;;;;;4937236;29;20216;-49
2021/06/21 11:54:20;;;;;;;1.45;1.13;;;26.70;44.90;;;;;;4936253;29;20272;-48
2021/06/21 11:56:47;;;;;;;1.27;1.10;;;26.70;44.90;;;;;;4937147;29;20212;-42
2021/06/21 11:59:13;;;;;;;1.83;1.10;;;26.70;44.90;;;;;;4947451;29;20232;-43
2021/06/21 12:01:39;;;;;;;1.40;0.88;;;26.80;45.00;;;;;;4937269;29;20673;-42
2021/06/21 12:04:08;;;;;;;2.25;1.23;;;26.80;45.00;;;;;;4936512;29;20662;-43
2021/06/21 12:06:34;;;;;;;0.90;0.90;;;26.70;44.90;;;;;;4951920;29;20292;-44
2021/06/21 12:09:01;;;;;;;2.40;1.00;;;26.70;44.90;;;;;;4954749;28;20227;-48
2021/06/21 12:11:27;;;;;;;1.40;1.02;;;26.70;44.90;;;;;;4948358;28;20201;-50
2021/06/21 12:13:54;;;;;;;3.22;1.30;;;26.70;44.90;;;;;;4954291;28;20254;-48
2021/06/21 12:16:20;;;;;;;2.75;1.40;;;26.70;40.20;;;;;;4953755;28;20666;-59
2021/06/21 12:18:47;;;;;;;4.13;1.77;;;26.70;39.30;;;;;;4952775;28;20579;-47
2021/06/21 12:21:14;;;;;;;4.22;1.60;;;26.70;39.40;;;;;;4952217;28;20288;-44
2021/06/21 12:23:41;;;;;;;8.57;2.03;;;26.70;38.60;;;;;;4954382;28;20260;-49
2021/06/21 12:26:07;;;;;;;7.95;2.58;;;26.70;35.70;;;;;;4955136;29;20233;-49
2021/06/21 12:28:34;;;;;;;6.30;2.22;;;26.70;34.30;;;;;;4952715;28;20232;-48
2021/06/21 12:31:00;;;;;;;6.75;2.00;;;26.50;33.60;;;;;;4952140;28;20206;-49
2021/06/21 12:33:28;;;;;;;6.38;1.77;;;26.50;33.80;;;;;;4953608;28;20231;-49
2021/06/21 12:35:54;;;;;;;4.25;2.33;;;26.60;33.70;;;;;;4953342;28;20244;-50
2021/06/21 12:38:21;;;;;;;6.10;2.03;;;26.70;33.70;;;;;;4952918;28;20227;-51
2021/06/21 12:40:47;;;;;;;6.20;1.80;;;26.70;33.30;;;;;;4951728;28;20201;-49
2021/06/21 12:43:13;;;;;;;2.47;1.70;;;26.70;33.40;;;;;;4952968;28;20206;-49
2021/06/21 12:45:40;;;;;;;5.35;2.03;;;26.70;33.40;;;;;;4952156;28;20202;-49